Pagrindinis puslapis
METAR-TAF:

METAR-TAF

Oro uostai :

Gamvik, Norvegija

platuma: 71-02N, ilguma: 027-50E, Aukštis: 1 m

Dabartinis oras

Ataskaita buvo paskelbta 51 minutes, ne 05:50 UTC
Vėjas 18 kt iš Šiaurės/Šiaurės Rytų
Temperatūra 0°C
Drėgmė 69%
Slėgis 1006 hPa
Matomumas 10 km arba daugiau
Mažai debesys ne aukštis 2500 ft
Išsisklaidę debesys ne aukštis 4800 ft

METAR: ENMH 020550Z 03018KT 9999 FEW025 SCT048 00/M05 Q1006

Laikas: 07:41 (06:41 UTC)


TAF: trūkstamas

Orai ataskaitas ir orų prognozės (METAR, TAF).

turimą stotys yra geltonos ir raudonos taškus žemėlapyje.

Perkelti pele per norėdami pamatyti stoties vardą.

Tada spustelėkite, norėdami matyti oro stebėjimo ir prognozės.

Norėdami pakeisti žemėlapį: spustelėkite ant žalios mygtukų su juodo kryžiaus žemyn,; žalią mygtuką su brūkšneliu, jei norite nutolinti; arba žalių rodyklių gretimoms žemėlapius.


METAR-TAF: